sensor_id;sensor_type;location;lat;lon;timestamp;temperature;humidity
35692;DHT22;26978;44.830;-0.674;2022-11-25T00:02:25;10.50;99.90
35692;DHT22;26978;44.830;-0.674;2022-11-25T00:04:50;10.60;99.90
35692;DHT22;26978;44.830;-0.674;2022-11-25T00:07:16;10.60;99.90
35692;DHT22;26978;44.830;-0.674;2022-11-25T00:09:41;10.80;99.90
35692;DHT22;26978;44.830;-0.674;2022-11-25T00:12:07;10.80;99.90
35692;DHT22;26978;44.830;-0.674;2022-11-25T00:14:32;10.90;99.90
35692;DHT22;26978;44.830;-0.674;2022-11-25T00:16:58;10.90;99.90
35692;DHT22;26978;44.830;-0.674;2022-11-25T00:19:23;11.00;99.90
35692;DHT22;26978;44.830;-0.674;2022-11-25T00:21:49;11.00;99.90
35692;DHT22;26978;44.830;-0.674;2022-11-25T00:24:15;11.00;99.90
35692;DHT22;26978;44.830;-0.674;2022-11-25T00:26:41;11.00;99.90
35692;DHT22;26978;44.830;-0.674;2022-11-25T00:29:07;11.10;99.90
35692;DHT22;26978;44.830;-0.674;2022-11-25T00:31:35;11.00;99.90
35692;DHT22;26978;44.830;-0.674;2022-11-25T00:34:01;11.00;99.90
35692;DHT22;26978;44.830;-0.674;2022-11-25T00:38:58;11.00;99.90
35692;DHT22;26978;44.830;-0.674;2022-11-25T00:41:24;11.00;99.90
35692;DHT22;26978;44.830;-0.674;2022-11-25T00:44:09;10.90;99.90
35692;DHT22;26978;44.830;-0.674;2022-11-25T00:46:53;10.90;99.90
35692;DHT22;26978;44.830;-0.674;2022-11-25T00:49:19;10.90;99.90
35692;DHT22;26978;44.830;-0.674;2022-11-25T00:51:44;10.90;99.90
35692;DHT22;26978;44.830;-0.674;2022-11-25T00:54:10;10.90;99.90
35692;DHT22;26978;44.830;-0.674;2022-11-25T00:56:36;10.80;99.90
35692;DHT22;26978;44.830;-0.674;2022-11-25T00:59:02;10.80;99.90
35692;DHT22;26978;44.830;-0.674;2022-11-25T01:01:27;10.80;99.90
35692;DHT22;26978;44.830;-0.674;2022-11-25T01:03:53;10.80;99.90
35692;DHT22;26978;44.830;-0.674;2022-11-25T01:06:18;10.80;99.90
35692;DHT22;26978;44.830;-0.674;2022-11-25T01:08:44;10.90;99.90
35692;DHT22;26978;44.830;-0.674;2022-11-25T01:11:10;11.00;99.90
35692;DHT22;26978;44.830;-0.674;2022-11-25T01:13:36;10.90;99.90
35692;DHT22;26978;44.830;-0.674;2022-11-25T01:16:02;11.00;99.90
35692;DHT22;26978;44.830;-0.674;2022-11-25T01:18:28;10.90;99.90
35692;DHT22;26978;44.830;-0.674;2022-11-25T01:20:54;11.00;99.90
35692;DHT22;26978;44.830;-0.674;2022-11-25T01:23:19;11.00;99.90
35692;DHT22;26978;44.830;-0.674;2022-11-25T01:25:45;11.00;99.90
35692;DHT22;26978;44.830;-0.674;2022-11-25T01:28:10;11.00;99.90
35692;DHT22;26978;44.830;-0.674;2022-11-25T01:30:38;10.90;99.90
35692;DHT22;26978;44.830;-0.674;2022-11-25T01:33:04;10.90;99.90
35692;DHT22;26978;44.830;-0.674;2022-11-25T01:35:29;10.90;99.90
35692;DHT22;26978;44.830;-0.674;2022-11-25T01:37:55;10.90;99.90
35692;DHT22;26978;44.830;-0.674;2022-11-25T01:40:21;11.00;99.90
35692;DHT22;26978;44.830;-0.674;2022-11-25T01:42:47;11.00;99.90
35692;DHT22;26978;44.830;-0.674;2022-11-25T01:47:48;11.00;99.90
35692;DHT22;26978;44.830;-0.674;2022-11-25T01:50:13;11.00;99.90
35692;DHT22;26978;44.830;-0.674;2022-11-25T01:52:42;11.00;99.90
35692;DHT22;26978;44.830;-0.674;2022-11-25T01:55:13;11.00;99.90
35692;DHT22;26978;44.830;-0.674;2022-11-25T01:57:40;11.00;99.90
35692;DHT22;26978;44.830;-0.674;2022-11-25T02:00:08;11.10;99.90
35692;DHT22;26978;44.830;-0.674;2022-11-25T02:02:34;11.10;99.90
35692;DHT22;26978;44.830;-0.674;2022-11-25T02:05:00;11.10;99.90
35692;DHT22;26978;44.830;-0.674;2022-11-25T02:07:32;11.10;99.90
35692;DHT22;26978;44.830;-0.674;2022-11-25T02:09:59;11.10;99.90
35692;DHT22;26978;44.830;-0.674;2022-11-25T02:12:26;11.20;99.90
35692;DHT22;26978;44.830;-0.674;2022-11-25T02:14:51;11.20;99.90
35692;DHT22;26978;44.830;-0.674;2022-11-25T02:17:18;11.20;99.90
35692;DHT22;26978;44.830;-0.674;2022-11-25T02:25:19;11.30;99.90
35692;DHT22;26978;44.830;-0.674;2022-11-25T02:27:46;11.30;99.90
35692;DHT22;26978;44.830;-0.674;2022-11-25T02:30:13;11.30;99.90
35692;DHT22;26978;44.830;-0.674;2022-11-25T02:32:45;11.40;99.90
35692;DHT22;26978;44.830;-0.674;2022-11-25T02:37:57;11.40;99.90
35692;DHT22;26978;44.830;-0.674;2022-11-25T02:40:24;11.40;99.90
35692;DHT22;26978;44.830;-0.674;2022-11-25T02:42:50;11.50;99.90
35692;DHT22;26978;44.830;-0.674;2022-11-25T02:45:17;11.40;99.90
35692;DHT22;26978;44.830;-0.674;2022-11-25T02:47:44;11.40;99.90
35692;DHT22;26978;44.830;-0.674;2022-11-25T02:50:10;11.40;99.90
35692;DHT22;26978;44.830;-0.674;2022-11-25T02:52:38;11.40;99.90
35692;DHT22;26978;44.830;-0.674;2022-11-25T02:55:03;11.40;99.90
35692;DHT22;26978;44.830;-0.674;2022-11-25T02:57:29;11.40;99.90
35692;DHT22;26978;44.830;-0.674;2022-11-25T02:59:54;11.40;99.90
35692;DHT22;26978;44.830;-0.674;2022-11-25T03:02:20;11.40;99.90
35692;DHT22;26978;44.830;-0.674;2022-11-25T03:04:45;11.40;99.90
35692;DHT22;26978;44.830;-0.674;2022-11-25T03:07:11;11.30;99.90
35692;DHT22;26978;44.830;-0.674;2022-11-25T03:09:36;11.40;99.90
35692;DHT22;26978;44.830;-0.674;2022-11-25T03:12:02;11.40;99.90
35692;DHT22;26978;44.830;-0.674;2022-11-25T03:14:46;11.30;99.90
35692;DHT22;26978;44.830;-0.674;2022-11-25T03:17:12;11.30;99.90
35692;DHT22;26978;44.830;-0.674;2022-11-25T03:19:38;11.30;99.90
35692;DHT22;26978;44.830;-0.674;2022-11-25T03:22:04;11.30;99.90
35692;DHT22;26978;44.830;-0.674;2022-11-25T03:24:29;11.30;99.90
35692;DHT22;26978;44.830;-0.674;2022-11-25T03:26:55;11.30;99.90
35692;DHT22;26978;44.830;-0.674;2022-11-25T03:29:20;11.30;99.90
35692;DHT22;26978;44.830;-0.674;2022-11-25T03:31:46;11.30;99.90
35692;DHT22;26978;44.830;-0.674;2022-11-25T03:34:11;11.40;99.90
35692;DHT22;26978;44.830;-0.674;2022-11-25T03:36:37;11.40;99.90
35692;DHT22;26978;44.830;-0.674;2022-11-25T03:39:03;11.40;99.90
35692;DHT22;26978;44.830;-0.674;2022-11-25T03:41:29;11.40;99.90
35692;DHT22;26978;44.830;-0.674;2022-11-25T03:43:54;11.30;99.90
35692;DHT22;26978;44.830;-0.674;2022-11-25T03:46:20;11.30;99.90
35692;DHT22;26978;44.830;-0.674;2022-11-25T03:48:45;11.30;99.90
35692;DHT22;26978;44.830;-0.674;2022-11-25T03:51:11;11.30;99.90
35692;DHT22;26978;44.830;-0.674;2022-11-25T03:53:36;11.30;99.90
35692;DHT22;26978;44.830;-0.674;2022-11-25T03:56:02;11.30;99.90
35692;DHT22;26978;44.830;-0.674;2022-11-25T03:58:27;11.20;99.90
35692;DHT22;26978;44.830;-0.674;2022-11-25T04:00:53;11.20;99.90
35692;DHT22;26978;44.830;-0.674;2022-11-25T04:03:18;11.20;99.90
35692;DHT22;26978;44.830;-0.674;2022-11-25T04:05:44;11.20;99.90
35692;DHT22;26978;44.830;-0.674;2022-11-25T04:08:09;11.20;99.90
35692;DHT22;26978;44.830;-0.674;2022-11-25T04:10:35;11.20;99.90
35692;DHT22;26978;44.830;-0.674;2022-11-25T04:13:01;11.10;99.90
35692;DHT22;26978;44.830;-0.674;2022-11-25T04:15:26;11.10;99.90
35692;DHT22;26978;44.830;-0.674;2022-11-25T04:17:52;11.10;99.90
35692;DHT22;26978;44.830;-0.674;2022-11-25T04:20:17;11.00;99.90
35692;DHT22;26978;44.830;-0.674;2022-11-25T04:22:43;11.00;99.90
35692;DHT22;26978;44.830;-0.674;2022-11-25T04:25:09;11.00;99.90
35692;DHT22;26978;44.830;-0.674;2022-11-25T04:27:34;10.90;99.90
35692;DHT22;26978;44.830;-0.674;2022-11-25T04:30:00;10.90;99.90
35692;DHT22;26978;44.830;-0.674;2022-11-25T04:32:25;10.90;99.90
35692;DHT22;26978;44.830;-0.674;2022-11-25T04:34:51;11.00;99.90
35692;DHT22;26978;44.830;-0.674;2022-11-25T04:37:17;11.00;99.90
35692;DHT22;26978;44.830;-0.674;2022-11-25T04:39:42;11.00;99.90
35692;DHT22;26978;44.830;-0.674;2022-11-25T04:42:08;11.00;99.90
35692;DHT22;26978;44.830;-0.674;2022-11-25T04:44:52;11.00;99.90
35692;DHT22;26978;44.830;-0.674;2022-11-25T04:47:18;11.00;99.90
35692;DHT22;26978;44.830;-0.674;2022-11-25T04:49:43;11.10;99.90
35692;DHT22;26978;44.830;-0.674;2022-11-25T04:52:09;11.10;99.90
35692;DHT22;26978;44.830;-0.674;2022-11-25T04:54:34;11.10;99.90
35692;DHT22;26978;44.830;-0.674;2022-11-25T04:57:00;11.10;99.90
35692;DHT22;26978;44.830;-0.674;2022-11-25T04:59:25;11.30;99.90
35692;DHT22;26978;44.830;-0.674;2022-11-25T05:02:11;11.30;99.90
35692;DHT22;26978;44.830;-0.674;2022-11-25T05:04:38;11.30;99.90
35692;DHT22;26978;44.830;-0.674;2022-11-25T05:07:03;11.30;99.90
35692;DHT22;26978;44.830;-0.674;2022-11-25T05:09:29;11.30;99.90
35692;DHT22;26978;44.830;-0.674;2022-11-25T05:11:54;11.30;99.90
35692;DHT22;26978;44.830;-0.674;2022-11-25T05:14:20;11.20;99.90
35692;DHT22;26978;44.830;-0.674;2022-11-25T05:16:46;11.10;99.90
35692;DHT22;26978;44.830;-0.674;2022-11-25T05:19:12;11.10;99.90
35692;DHT22;26978;44.830;-0.674;2022-11-25T05:21:37;11.00;99.90
35692;DHT22;26978;44.830;-0.674;2022-11-25T05:24:03;11.00;99.90
35692;DHT22;26978;44.830;-0.674;2022-11-25T05:26:29;11.00;99.90
35692;DHT22;26978;44.830;-0.674;2022-11-25T05:28:54;10.90;99.90
35692;DHT22;26978;44.830;-0.674;2022-11-25T05:31:20;10.80;99.90
35692;DHT22;26978;44.830;-0.674;2022-11-25T05:33:45;10.80;99.90
35692;DHT22;26978;44.830;-0.674;2022-11-25T05:36:11;10.80;99.90
35692;DHT22;26978;44.830;-0.674;2022-11-25T05:38:36;10.70;99.90
35692;DHT22;26978;44.830;-0.674;2022-11-25T05:41:03;10.70;99.90
35692;DHT22;26978;44.830;-0.674;2022-11-25T05:43:29;10.60;99.90
35692;DHT22;26978;44.830;-0.674;2022-11-25T05:45:54;10.60;99.90
35692;DHT22;26978;44.830;-0.674;2022-11-25T05:48:20;10.60;99.90
35692;DHT22;26978;44.830;-0.674;2022-11-25T05:50:45;10.50;99.90
35692;DHT22;26978;44.830;-0.674;2022-11-25T05:53:11;10.50;99.90
35692;DHT22;26978;44.830;-0.674;2022-11-25T05:55:38;10.50;99.90
35692;DHT22;26978;44.830;-0.674;2022-11-25T05:58:03;10.50;99.90
35692;DHT22;26978;44.830;-0.674;2022-11-25T06:00:30;10.50;99.90
35692;DHT22;26978;44.830;-0.674;2022-11-25T06:02:56;10.50;99.90
35692;DHT22;26978;44.830;-0.674;2022-11-25T06:05:21;10.50;99.90
35692;DHT22;26978;44.830;-0.674;2022-11-25T06:07:47;10.50;99.90
35692;DHT22;26978;44.830;-0.674;2022-11-25T06:10:13;10.50;99.90
35692;DHT22;26978;44.830;-0.674;2022-11-25T06:12:38;10.40;99.90
35692;DHT22;26978;44.830;-0.674;2022-11-25T06:15:04;10.50;99.90
35692;DHT22;26978;44.830;-0.674;2022-11-25T06:17:30;10.50;99.90
35692;DHT22;26978;44.830;-0.674;2022-11-25T06:19:55;10.50;99.90
35692;DHT22;26978;44.830;-0.674;2022-11-25T06:22:21;10.50;99.90
35692;DHT22;26978;44.830;-0.674;2022-11-25T06:24:47;10.50;99.90
35692;DHT22;26978;44.830;-0.674;2022-11-25T06:27:12;10.50;99.90
35692;DHT22;26978;44.830;-0.674;2022-11-25T06:29:38;10.50;99.90
35692;DHT22;26978;44.830;-0.674;2022-11-25T06:32:03;10.60;99.90
35692;DHT22;26978;44.830;-0.674;2022-11-25T06:34:29;10.60;99.90
35692;DHT22;26978;44.830;-0.674;2022-11-25T06:36:54;10.60;99.90
35692;DHT22;26978;44.830;-0.674;2022-11-25T06:39:20;10.60;99.90
35692;DHT22;26978;44.830;-0.674;2022-11-25T06:41:46;10.60;99.90
35692;DHT22;26978;44.830;-0.674;2022-11-25T06:44:12;10.60;99.90
35692;DHT22;26978;44.830;-0.674;2022-11-25T06:46:37;10.60;99.90
35692;DHT22;26978;44.830;-0.674;2022-11-25T06:49:03;10.60;99.90
35692;DHT22;26978;44.830;-0.674;2022-11-25T06:51:29;10.60;99.90
35692;DHT22;26978;44.830;-0.674;2022-11-25T06:53:54;10.60;99.90
35692;DHT22;26978;44.830;-0.674;2022-11-25T06:56:20;10.60;99.90
35692;DHT22;26978;44.830;-0.674;2022-11-25T06:58:47;10.60;99.90
35692;DHT22;26978;44.830;-0.674;2022-11-25T07:01:14;10.60;99.90
35692;DHT22;26978;44.830;-0.674;2022-11-25T07:03:41;10.60;99.90
35692;DHT22;26978;44.830;-0.674;2022-11-25T07:06:06;10.50;99.90
35692;DHT22;26978;44.830;-0.674;2022-11-25T07:08:32;10.50;99.90
35692;DHT22;26978;44.830;-0.674;2022-11-25T07:11:02;10.50;99.90
35692;DHT22;26978;44.830;-0.674;2022-11-25T07:13:28;10.50;99.90
35692;DHT22;26978;44.830;-0.674;2022-11-25T07:15:53;10.50;99.90
35692;DHT22;26978;44.830;-0.674;2022-11-25T07:18:19;10.50;99.90
35692;DHT22;26978;44.830;-0.674;2022-11-25T07:20:44;10.40;99.90
35692;DHT22;26978;44.830;-0.674;2022-11-25T07:23:10;10.40;99.90
35692;DHT22;26978;44.830;-0.674;2022-11-25T07:25:35;10.40;99.90
35692;DHT22;26978;44.830;-0.674;2022-11-25T07:28:01;10.40;99.90
35692;DHT22;26978;44.830;-0.674;2022-11-25T07:30:26;10.30;99.90
35692;DHT22;26978;44.830;-0.674;2022-11-25T07:32:52;10.30;99.90
35692;DHT22;26978;44.830;-0.674;2022-11-25T07:35:17;10.40;99.90
35692;DHT22;26978;44.830;-0.674;2022-11-25T07:37:43;10.30;99.90
35692;DHT22;26978;44.830;-0.674;2022-11-25T07:40:08;10.40;99.90
35692;DHT22;26978;44.830;-0.674;2022-11-25T07:42:34;10.40;99.90
35692;DHT22;26978;44.830;-0.674;2022-11-25T07:44:59;10.40;99.90
35692;DHT22;26978;44.830;-0.674;2022-11-25T07:47:25;10.40;99.90
35692;DHT22;26978;44.830;-0.674;2022-11-25T07:49:50;10.40;99.90
35692;DHT22;26978;44.830;-0.674;2022-11-25T07:52:16;10.40;99.90
35692;DHT22;26978;44.830;-0.674;2022-11-25T07:54:41;10.40;99.90
35692;DHT22;26978;44.830;-0.674;2022-11-25T07:57:07;10.40;99.90
35692;DHT22;26978;44.830;-0.674;2022-11-25T07:59:32;10.40;99.90
35692;DHT22;26978;44.830;-0.674;2022-11-25T08:01:58;10.40;99.90
35692;DHT22;26978;44.830;-0.674;2022-11-25T08:04:24;10.40;99.90
35692;DHT22;26978;44.830;-0.674;2022-11-25T08:06:50;10.50;99.90
35692;DHT22;26978;44.830;-0.674;2022-11-25T08:09:17;10.50;99.90
35692;DHT22;26978;44.830;-0.674;2022-11-25T08:11:43;10.50;99.90
35692;DHT22;26978;44.830;-0.674;2022-11-25T08:14:09;10.60;99.90
35692;DHT22;26978;44.830;-0.674;2022-11-25T08:16:34;10.70;99.90
35692;DHT22;26978;44.830;-0.674;2022-11-25T08:19:01;10.70;99.90
35692;DHT22;26978;44.830;-0.674;2022-11-25T08:21:27;10.60;99.90
35692;DHT22;26978;44.830;-0.674;2022-11-25T08:23:52;10.70;99.90
35692;DHT22;26978;44.830;-0.674;2022-11-25T08:26:20;10.70;99.90
35692;DHT22;26978;44.830;-0.674;2022-11-25T08:28:46;10.70;99.90
35692;DHT22;26978;44.830;-0.674;2022-11-25T08:31:16;10.70;99.90
35692;DHT22;26978;44.830;-0.674;2022-11-25T08:33:42;10.70;99.90
35692;DHT22;26978;44.830;-0.674;2022-11-25T08:36:08;10.70;99.90
35692;DHT22;26978;44.830;-0.674;2022-11-25T08:38:33;10.70;99.90
35692;DHT22;26978;44.830;-0.674;2022-11-25T08:40:59;10.70;99.90
35692;DHT22;26978;44.830;-0.674;2022-11-25T08:43:25;10.50;99.90
35692;DHT22;26978;44.830;-0.674;2022-11-25T08:45:51;10.30;99.90
35692;DHT22;26978;44.830;-0.674;2022-11-25T08:48:17;10.20;99.90
35692;DHT22;26978;44.830;-0.674;2022-11-25T08:50:45;10.10;99.90
35692;DHT22;26978;44.830;-0.674;2022-11-25T08:53:10;10.10;99.90
35692;DHT22;26978;44.830;-0.674;2022-11-25T08:55:36;10.10;99.90
35692;DHT22;26978;44.830;-0.674;2022-11-25T08:58:03;10.10;99.90
35692;DHT22;26978;44.830;-0.674;2022-11-25T09:00:28;10.10;99.90
35692;DHT22;26978;44.830;-0.674;2022-11-25T09:02:54;10.20;99.90
35692;DHT22;26978;44.830;-0.674;2022-11-25T09:05:19;10.20;99.90
35692;DHT22;26978;44.830;-0.674;2022-11-25T09:07:45;10.20;99.90
35692;DHT22;26978;44.830;-0.674;2022-11-25T09:10:13;10.20;99.90
35692;DHT22;26978;44.830;-0.674;2022-11-25T09:12:39;10.20;99.90
35692;DHT22;26978;44.830;-0.674;2022-11-25T09:15:04;10.20;99.90
35692;DHT22;26978;44.830;-0.674;2022-11-25T09:17:30;10.20;99.90
35692;DHT22;26978;44.830;-0.674;2022-11-25T09:19:56;10.30;99.90
35692;DHT22;26978;44.830;-0.674;2022-11-25T09:22:21;10.40;99.90
35692;DHT22;26978;44.830;-0.674;2022-11-25T09:24:47;10.40;99.90
35692;DHT22;26978;44.830;-0.674;2022-11-25T09:27:12;10.60;99.90
35692;DHT22;26978;44.830;-0.674;2022-11-25T09:29:38;10.60;99.90
35692;DHT22;26978;44.830;-0.674;2022-11-25T09:32:03;10.70;99.90
35692;DHT22;26978;44.830;-0.674;2022-11-25T09:34:29;10.80;99.90
35692;DHT22;26978;44.830;-0.674;2022-11-25T09:36:55;10.90;99.90
35692;DHT22;26978;44.830;-0.674;2022-11-25T09:39:20;11.00;99.90
35692;DHT22;26978;44.830;-0.674;2022-11-25T09:41:53;11.00;99.90
35692;DHT22;26978;44.830;-0.674;2022-11-25T09:50:14;11.20;99.90
35692;DHT22;26978;44.830;-0.674;2022-11-25T10:00:16;11.30;99.90
35692;DHT22;26978;44.830;-0.674;2022-11-25T10:03:03;11.40;99.90
35692;DHT22;26978;44.830;-0.674;2022-11-25T10:05:31;11.50;99.90
35692;DHT22;26978;44.830;-0.674;2022-11-25T10:08:11;11.50;99.90
35692;DHT22;26978;44.830;-0.674;2022-11-25T10:10:49;11.50;99.90
35692;DHT22;26978;44.830;-0.674;2022-11-25T10:13:26;11.60;99.90
35692;DHT22;26978;44.830;-0.674;2022-11-25T10:15:53;11.70;99.90
35692;DHT22;26978;44.830;-0.674;2022-11-25T10:18:32;11.90;99.90
35692;DHT22;26978;44.830;-0.674;2022-11-25T10:21:02;11.90;99.90
35692;DHT22;26978;44.830;-0.674;2022-11-25T10:23:32;12.00;99.90
35692;DHT22;26978;44.830;-0.674;2022-11-25T10:26:00;11.90;99.90
35692;DHT22;26978;44.830;-0.674;2022-11-25T10:28:29;12.00;99.90
35692;DHT22;26978;44.830;-0.674;2022-11-25T10:31:05;12.20;99.90
35692;DHT22;26978;44.830;-0.674;2022-11-25T10:33:39;12.30;99.90
35692;DHT22;26978;44.830;-0.674;2022-11-25T10:36:06;12.40;99.90
35692;DHT22;26978;44.830;-0.674;2022-11-25T10:38:35;12.50;99.90
35692;DHT22;26978;44.830;-0.674;2022-11-25T10:41:02;12.60;99.90
35692;DHT22;26978;44.830;-0.674;2022-11-25T10:43:28;12.60;99.90
35692;DHT22;26978;44.830;-0.674;2022-11-25T10:45:58;12.60;99.90
35692;DHT22;26978;44.830;-0.674;2022-11-25T10:59:21;12.70;99.90
35692;DHT22;26978;44.830;-0.674;2022-11-25T11:01:46;12.80;99.90
35692;DHT22;26978;44.830;-0.674;2022-11-25T11:04:12;12.90;99.90
35692;DHT22;26978;44.830;-0.674;2022-11-25T11:06:40;12.90;99.90
35692;DHT22;26978;44.830;-0.674;2022-11-25T11:09:14;13.20;99.90
35692;DHT22;26978;44.830;-0.674;2022-11-25T11:11:51;13.30;99.90
35692;DHT22;26978;44.830;-0.674;2022-11-25T11:14:18;13.40;99.90
35692;DHT22;26978;44.830;-0.674;2022-11-25T11:16:50;13.30;99.90
35692;DHT22;26978;44.830;-0.674;2022-11-25T11:19:21;13.40;99.90
35692;DHT22;26978;44.830;-0.674;2022-11-25T11:21:47;13.50;99.90
35692;DHT22;26978;44.830;-0.674;2022-11-25T11:24:32;13.60;99.90
35692;DHT22;26978;44.830;-0.674;2022-11-25T11:27:03;13.60;99.90
35692;DHT22;26978;44.830;-0.674;2022-11-25T11:29:29;13.60;99.90
35692;DHT22;26978;44.830;-0.674;2022-11-25T11:31:58;13.60;99.90
35692;DHT22;26978;44.830;-0.674;2022-11-25T11:42:14;13.70;99.90
35692;DHT22;26978;44.830;-0.674;2022-11-25T11:50:07;14.30;99.90
35692;DHT22;26978;44.830;-0.674;2022-11-25T11:52:45;14.10;99.90
35692;DHT22;26978;44.830;-0.674;2022-11-25T11:58:01;13.60;99.90
35692;DHT22;26978;44.830;-0.674;2022-11-25T12:00:30;13.10;99.90
35692;DHT22;26978;44.830;-0.674;2022-11-25T12:03:10;12.10;99.90
35692;DHT22;26978;44.830;-0.674;2022-11-25T12:05:37;11.60;99.90
35692;DHT22;26978;44.830;-0.674;2022-11-25T12:08:13;10.90;99.90
35692;DHT22;26978;44.830;-0.674;2022-11-25T12:16:26;10.90;99.90
35692;DHT22;26978;44.830;-0.674;2022-11-25T12:21:04;11.20;99.90
35692;DHT22;26978;44.830;-0.674;2022-11-25T12:23:44;11.10;99.90
35692;DHT22;26978;44.830;-0.674;2022-11-25T12:26:16;11.00;99.90
35692;DHT22;26978;44.830;-0.674;2022-11-25T12:28:48;11.00;99.90
35692;DHT22;26978;44.830;-0.674;2022-11-25T12:36:14;10.80;99.90
35692;DHT22;26978;44.830;-0.674;2022-11-25T12:43:45;10.70;99.90
35692;DHT22;26978;44.830;-0.674;2022-11-25T12:48:58;11.00;99.90
35692;DHT22;26978;44.830;-0.674;2022-11-25T12:54:01;11.50;99.90
35692;DHT22;26978;44.830;-0.674;2022-11-25T13:17:34;12.10;99.90
35692;DHT22;26978;44.830;-0.674;2022-11-25T13:20:43;12.00;99.90
35692;DHT22;26978;44.830;-0.674;2022-11-25T13:25:35;12.00;99.90
35692;DHT22;26978;44.830;-0.674;2022-11-25T13:28:05;12.00;99.90
35692;DHT22;26978;44.830;-0.674;2022-11-25T13:30:51;12.00;99.90
35692;DHT22;26978;44.830;-0.674;2022-11-25T13:40:56;11.90;99.90
35692;DHT22;26978;44.830;-0.674;2022-11-25T13:43:22;11.90;99.90
35692;DHT22;26978;44.830;-0.674;2022-11-25T13:45:47;12.00;99.90
35692;DHT22;26978;44.830;-0.674;2022-11-25T13:50:41;12.20;99.90
35692;DHT22;26978;44.830;-0.674;2022-11-25T13:53:18;12.40;99.90
35692;DHT22;26978;44.830;-0.674;2022-11-25T13:55:45;12.50;99.90
35692;DHT22;26978;44.830;-0.674;2022-11-25T14:26:27;15.20;99.90
35692;DHT22;26978;44.830;-0.674;2022-11-25T14:28:55;14.90;99.90
35692;DHT22;26978;44.830;-0.674;2022-11-25T14:31:23;14.90;99.90
35692;DHT22;26978;44.830;-0.674;2022-11-25T14:33:53;14.90;99.90
35692;DHT22;26978;44.830;-0.674;2022-11-25T14:36:21;14.90;99.90
35692;DHT22;26978;44.830;-0.674;2022-11-25T14:39:09;14.40;99.90
35692;DHT22;26978;44.830;-0.674;2022-11-25T14:44:09;13.20;99.90
35692;DHT22;26978;44.830;-0.674;2022-11-25T14:46:49;12.80;99.90
35692;DHT22;26978;44.830;-0.674;2022-11-25T14:49:15;12.70;99.90
35692;DHT22;26978;44.830;-0.674;2022-11-25T14:51:40;12.50;99.90
35692;DHT22;26978;44.830;-0.674;2022-11-25T14:54:06;12.50;99.90
35692;DHT22;26978;44.830;-0.674;2022-11-25T14:56:33;13.00;99.90
35692;DHT22;26978;44.830;-0.674;2022-11-25T14:59:00;13.40;99.90
35692;DHT22;26978;44.830;-0.674;2022-11-25T15:03:59;13.30;99.90
35692;DHT22;26978;44.830;-0.674;2022-11-25T15:06:27;13.70;99.90
35692;DHT22;26978;44.830;-0.674;2022-11-25T15:08:53;14.00;99.90
35692;DHT22;26978;44.830;-0.674;2022-11-25T15:11:21;14.30;99.90
35692;DHT22;26978;44.830;-0.674;2022-11-25T15:13:48;14.30;99.90
35692;DHT22;26978;44.830;-0.674;2022-11-25T15:16:17;14.00;99.90
35692;DHT22;26978;44.830;-0.674;2022-11-25T15:18:48;13.80;99.90
35692;DHT22;26978;44.830;-0.674;2022-11-25T15:21:14;13.90;99.90
35692;DHT22;26978;44.830;-0.674;2022-11-25T15:23:41;14.50;99.90
35692;DHT22;26978;44.830;-0.674;2022-11-25T15:26:18;14.60;99.90
35692;DHT22;26978;44.830;-0.674;2022-11-25T15:28:43;15.00;99.90
35692;DHT22;26978;44.830;-0.674;2022-11-25T15:31:14;14.60;99.90
35692;DHT22;26978;44.830;-0.674;2022-11-25T15:33:41;14.90;99.90
35692;DHT22;26978;44.830;-0.674;2022-11-25T15:36:07;14.60;99.90
35692;DHT22;26978;44.830;-0.674;2022-11-25T15:38:34;14.60;99.90
35692;DHT22;26978;44.830;-0.674;2022-11-25T15:41:00;14.50;99.90
35692;DHT22;26978;44.830;-0.674;2022-11-25T15:43:27;14.40;99.90
35692;DHT22;26978;44.830;-0.674;2022-11-25T15:45:58;14.10;99.90
35692;DHT22;26978;44.830;-0.674;2022-11-25T15:51:00;13.00;99.90
35692;DHT22;26978;44.830;-0.674;2022-11-25T15:53:26;12.60;99.90
35692;DHT22;26978;44.830;-0.674;2022-11-25T15:55:52;12.40;99.90
35692;DHT22;26978;44.830;-0.674;2022-11-25T15:58:19;12.20;99.90
35692;DHT22;26978;44.830;-0.674;2022-11-25T16:03:29;11.70;99.90
35692;DHT22;26978;44.830;-0.674;2022-11-25T16:05:58;11.60;99.90
35692;DHT22;26978;44.830;-0.674;2022-11-25T16:10:53;11.50;99.90
35692;DHT22;26978;44.830;-0.674;2022-11-25T16:18:16;11.20;99.90
35692;DHT22;26978;44.830;-0.674;2022-11-25T16:20:53;11.00;99.90
35692;DHT22;26978;44.830;-0.674;2022-11-25T16:23:20;10.80;99.90
35692;DHT22;26978;44.830;-0.674;2022-11-25T16:25:50;10.60;99.90
35692;DHT22;26978;44.830;-0.674;2022-11-25T16:28:21;10.40;99.90
35692;DHT22;26978;44.830;-0.674;2022-11-25T16:30:47;10.20;99.90
35692;DHT22;26978;44.830;-0.674;2022-11-25T16:33:13;10.20;99.90
35692;DHT22;26978;44.830;-0.674;2022-11-25T16:35:39;10.30;99.90
35692;DHT22;26978;44.830;-0.674;2022-11-25T16:38:04;10.30;99.90
35692;DHT22;26978;44.830;-0.674;2022-11-25T16:40:30;10.10;99.90
35692;DHT22;26978;44.830;-0.674;2022-11-25T16:42:59;9.90;99.90
35692;DHT22;26978;44.830;-0.674;2022-11-25T16:45:26;9.70;99.90
35692;DHT22;26978;44.830;-0.674;2022-11-25T16:47:52;9.70;99.90
35692;DHT22;26978;44.830;-0.674;2022-11-25T16:50:17;9.60;99.90
35692;DHT22;26978;44.830;-0.674;2022-11-25T16:52:43;9.30;99.90
35692;DHT22;26978;44.830;-0.674;2022-11-25T16:55:09;9.30;99.90
35692;DHT22;26978;44.830;-0.674;2022-11-25T16:57:35;9.10;99.90
35692;DHT22;26978;44.830;-0.674;2022-11-25T17:00:02;9.00;99.90
35692;DHT22;26978;44.830;-0.674;2022-11-25T17:02:33;8.90;99.90
35692;DHT22;26978;44.830;-0.674;2022-11-25T17:05:06;8.80;99.90
35692;DHT22;26978;44.830;-0.674;2022-11-25T17:07:38;8.80;99.90
35692;DHT22;26978;44.830;-0.674;2022-11-25T17:10:03;8.70;99.90
35692;DHT22;26978;44.830;-0.674;2022-11-25T17:12:30;8.80;99.90
35692;DHT22;26978;44.830;-0.674;2022-11-25T17:14:56;8.80;99.90
35692;DHT22;26978;44.830;-0.674;2022-11-25T17:17:23;8.90;99.90
35692;DHT22;26978;44.830;-0.674;2022-11-25T17:19:50;8.90;99.90
35692;DHT22;26978;44.830;-0.674;2022-11-25T17:22:19;9.00;99.90
35692;DHT22;26978;44.830;-0.674;2022-11-25T17:24:45;8.90;99.90
35692;DHT22;26978;44.830;-0.674;2022-11-25T17:27:14;9.00;99.90
35692;DHT22;26978;44.830;-0.674;2022-11-25T17:29:41;9.00;99.90
35692;DHT22;26978;44.830;-0.674;2022-11-25T17:32:09;9.00;99.90
35692;DHT22;26978;44.830;-0.674;2022-11-25T17:34:35;9.00;99.90
35692;DHT22;26978;44.830;-0.674;2022-11-25T17:37:00;9.00;99.90
35692;DHT22;26978;44.830;-0.674;2022-11-25T17:39:28;9.00;99.90
35692;DHT22;26978;44.830;-0.674;2022-11-25T17:41:53;9.00;99.90
35692;DHT22;26978;44.830;-0.674;2022-11-25T17:44:24;8.90;99.90
35692;DHT22;26978;44.830;-0.674;2022-11-25T17:46:50;8.80;99.90
35692;DHT22;26978;44.830;-0.674;2022-11-25T17:49:16;8.60;99.90
35692;DHT22;26978;44.830;-0.674;2022-11-25T17:51:42;8.70;99.90
35692;DHT22;26978;44.830;-0.674;2022-11-25T17:54:08;8.70;99.90
35692;DHT22;26978;44.830;-0.674;2022-11-25T17:56:33;8.60;99.90